createdAt,value
2018-07-20T00:01:48.120Z,17.70
2018-07-20T00:04:16.162Z,17.70
2018-07-20T00:06:44.298Z,17.70
2018-07-20T00:09:12.336Z,17.60
2018-07-20T00:14:08.234Z,17.60
2018-07-20T00:16:36.295Z,17.60
2018-07-20T00:19:04.529Z,17.50
2018-07-20T00:21:32.570Z,17.40
2018-07-20T00:24:00.625Z,17.40
2018-07-20T00:26:28.693Z,17.40
2018-07-20T00:28:56.792Z,17.50
2018-07-20T00:31:25.139Z,17.40
2018-07-20T00:33:53.208Z,17.40
2018-07-20T00:36:21.301Z,17.50
2018-07-20T00:38:49.423Z,17.50
2018-07-20T00:41:17.475Z,17.50
2018-07-20T00:43:45.513Z,17.40
2018-07-20T00:46:13.553Z,16.90
2018-07-20T00:48:41.610Z,16.90
2018-07-20T00:51:09.645Z,17.00
2018-07-20T00:53:37.709Z,17.00
2018-07-20T00:56:05.953Z,17.20
2018-07-20T00:58:34.022Z,17.20
2018-07-20T01:01:02.289Z,17.10
2018-07-20T01:03:30.357Z,17.10
2018-07-20T01:05:58.437Z,16.70
2018-07-20T01:08:26.801Z,16.70
2018-07-20T01:10:54.859Z,16.80
2018-07-20T01:13:22.934Z,16.90
2018-07-20T01:15:50.983Z,16.90
2018-07-20T01:18:19.030Z,16.90
2018-07-20T01:20:47.068Z,16.90
2018-07-20T01:23:15.117Z,16.80
2018-07-20T01:25:43.160Z,16.60
2018-07-20T01:28:11.205Z,16.50
2018-07-20T01:30:39.419Z,16.70
2018-07-20T01:33:07.453Z,16.70
2018-07-20T01:35:35.516Z,16.80
2018-07-20T01:38:03.591Z,16.50
2018-07-20T01:40:31.647Z,16.60
2018-07-20T01:42:59.706Z,16.60
2018-07-20T01:45:27.757Z,16.50
2018-07-20T01:47:56.001Z,16.60
2018-07-20T01:50:25.071Z,16.60
2018-07-20T01:52:53.109Z,16.50
2018-07-20T01:55:21.173Z,16.60
2018-07-20T01:57:49.240Z,16.60
2018-07-20T02:00:17.295Z,16.40
2018-07-20T02:02:45.356Z,16.20
2018-07-20T02:05:13.422Z,16.40
2018-07-20T02:07:41.646Z,16.40
2018-07-20T02:10:09.701Z,16.20
2018-07-20T02:12:37.744Z,16.20
2018-07-20T02:15:06.478Z,16.10
2018-07-20T02:17:34.743Z,16.20
2018-07-20T02:20:03.726Z,16.10
2018-07-20T02:22:31.776Z,16.10
2018-07-20T02:24:59.833Z,16.10
2018-07-20T02:27:27.877Z,16.00
2018-07-20T02:29:55.930Z,16.20
2018-07-20T02:32:23.973Z,16.20
2018-07-20T02:34:52.037Z,16.10
2018-07-20T02:37:20.525Z,15.90
2018-07-20T02:39:48.577Z,15.90
2018-07-20T02:42:16.660Z,16.00
2018-07-20T02:44:44.718Z,16.00
2018-07-20T02:47:12.760Z,15.90
2018-07-20T02:49:40.856Z,15.90
2018-07-20T02:52:08.892Z,15.70
2018-07-20T02:54:36.943Z,15.70
2018-07-20T03:02:01.004Z,15.40
2018-07-20T03:04:29.174Z,15.50
2018-07-20T03:06:57.244Z,15.30
2018-07-20T03:09:25.310Z,15.40
2018-07-20T03:11:53.350Z,15.60
2018-07-20T03:14:21.420Z,15.40
2018-07-20T03:16:49.470Z,15.40
2018-07-20T03:19:17.562Z,15.40
2018-07-20T03:21:46.074Z,15.50
2018-07-20T03:24:14.116Z,15.60
2018-07-20T03:26:42.269Z,15.70
2018-07-20T03:29:10.329Z,15.50
2018-07-20T03:31:38.442Z,15.40
2018-07-20T03:34:06.490Z,15.40
2018-07-20T03:36:34.549Z,15.30
2018-07-20T03:41:30.456Z,15.40
2018-07-20T03:43:58.689Z,15.50
2018-07-20T03:46:26.742Z,15.60
2018-07-20T03:48:54.901Z,15.60
2018-07-20T03:51:22.944Z,15.40
2018-07-20T03:53:51.065Z,15.50
2018-07-20T03:56:19.117Z,15.50
2018-07-20T03:58:47.161Z,15.40
2018-07-20T04:01:15.205Z,15.50
2018-07-20T04:03:43.265Z,15.60
2018-07-20T04:06:11.337Z,15.70
2018-07-20T04:08:39.424Z,15.70
2018-07-20T04:11:07.482Z,15.70
2018-07-20T04:13:35.558Z,15.70
2018-07-20T04:16:04.138Z,15.70
2018-07-20T04:18:32.188Z,15.70
2018-07-20T04:21:00.241Z,15.80
2018-07-20T04:23:28.313Z,15.80
2018-07-20T04:25:56.381Z,15.80
2018-07-20T04:28:24.426Z,15.90
2018-07-20T04:30:52.657Z,15.90
2018-07-20T04:33:20.725Z,15.90
2018-07-20T04:35:48.780Z,15.90
2018-07-20T04:38:16.817Z,16.10
2018-07-20T04:40:44.878Z,16.10
2018-07-20T04:43:12.961Z,16.10
2018-07-20T04:45:41.050Z,16.10
2018-07-20T04:48:09.098Z,16.10
2018-07-20T04:50:37.503Z,16.30
2018-07-20T04:53:05.553Z,16.20
2018-07-20T04:55:33.612Z,16.30
2018-07-20T04:58:01.678Z,16.40
2018-07-20T05:00:29.765Z,18.70
2018-07-20T05:02:57.850Z,16.70
2018-07-20T05:05:25.898Z,16.70
2018-07-20T05:07:54.473Z,16.80
2018-07-20T05:10:23.515Z,16.70
2018-07-20T05:12:51.593Z,16.90
2018-07-20T05:15:19.645Z,17.00
2018-07-20T05:17:47.706Z,17.00
2018-07-20T05:20:15.825Z,16.80
2018-07-20T05:22:43.882Z,16.90
2018-07-20T05:25:12.837Z,17.00
2018-07-20T05:27:40.879Z,17.00
2018-07-20T05:30:08.926Z,17.10
2018-07-20T05:32:37.044Z,17.10
2018-07-20T05:35:05.034Z,17.20
2018-07-20T05:37:33.096Z,17.20
2018-07-20T05:40:01.154Z,17.20
2018-07-20T05:42:29.210Z,17.10
2018-07-20T05:44:57.285Z,17.20
2018-07-20T05:47:25.374Z,17.10
2018-07-20T05:49:53.411Z,17.30
2018-07-20T05:52:21.469Z,17.40
2018-07-20T05:54:49.513Z,17.40
2018-07-20T05:57:19.124Z,17.10
2018-07-20T05:59:47.165Z,17.10
2018-07-20T06:02:17.485Z,17.00
2018-07-20T06:04:45.673Z,17.00
2018-07-20T06:07:13.741Z,17.00
2018-07-20T06:09:41.797Z,17.20
2018-07-20T06:12:09.850Z,17.20
2018-07-20T06:14:37.889Z,17.30
2018-07-20T06:17:06.122Z,17.40
2018-07-20T06:19:34.290Z,17.40
2018-07-20T06:22:03.250Z,17.30
2018-07-20T06:24:32.272Z,17.40
2018-07-20T06:27:00.321Z,17.20
2018-07-20T06:29:28.433Z,17.30
2018-07-20T06:31:56.485Z,17.50
2018-07-20T06:34:24.534Z,17.70
2018-07-20T06:36:52.590Z,17.70
2018-07-20T06:39:20.650Z,17.60
2018-07-20T06:41:48.700Z,17.60
2018-07-20T06:46:44.786Z,18.00
2018-07-20T06:49:12.838Z,18.10
2018-07-20T06:51:40.897Z,18.10
2018-07-20T06:54:08.945Z,18.30
2018-07-20T06:56:37.001Z,18.30
2018-07-20T06:59:05.101Z,18.40
2018-07-20T07:01:33.450Z,18.40
2018-07-20T07:04:01.585Z,18.40
2018-07-20T07:06:29.855Z,18.30
2018-07-20T07:08:58.318Z,18.10
2018-07-20T07:11:26.397Z,18.30
2018-07-20T07:13:54.512Z,18.30
2018-07-20T07:16:22.619Z,18.30
2018-07-20T07:18:50.684Z,18.40
2018-07-20T07:21:18.733Z,18.60
2018-07-20T07:23:46.915Z,18.60
2018-07-20T07:26:14.857Z,18.50
2018-07-20T07:28:42.914Z,18.60
2018-07-20T07:31:10.968Z,18.60
2018-07-20T07:33:39.253Z,18.60
2018-07-20T07:36:07.502Z,18.70
2018-07-20T07:38:35.578Z,18.70
2018-07-20T07:41:03.702Z,18.90
2018-07-20T07:43:31.783Z,18.90
2018-07-20T07:45:59.828Z,19.10
2018-07-20T07:48:27.895Z,19.20
2018-07-20T07:50:55.953Z,19.20
2018-07-20T07:53:24.923Z,19.20
2018-07-20T07:55:52.981Z,19.40
2018-07-20T07:58:21.018Z,19.40
2018-07-20T08:00:49.085Z,19.50
2018-07-20T08:03:17.150Z,19.30
2018-07-20T08:05:45.208Z,19.20
2018-07-20T08:08:13.259Z,19.20
2018-07-20T08:10:41.330Z,19.40
2018-07-20T08:13:09.389Z,19.50
2018-07-20T08:15:37.482Z,19.60
2018-07-20T08:20:33.409Z,19.70
2018-07-20T08:23:01.507Z,19.70
2018-07-20T08:25:29.504Z,19.80
2018-07-20T08:27:58.424Z,19.70
2018-07-20T08:30:26.450Z,19.70
2018-07-20T08:32:54.505Z,19.70
2018-07-20T08:35:22.590Z,20.00
2018-07-20T08:37:50.653Z,19.80
2018-07-20T08:40:18.699Z,20.10
2018-07-20T08:42:46.948Z,20.10
2018-07-20T08:45:14.997Z,20.00
2018-07-20T08:47:43.081Z,20.20
2018-07-20T08:50:11.144Z,20.40
2018-07-20T08:52:39.201Z,20.70
2018-07-20T08:55:07.275Z,20.60
2018-07-20T08:57:35.317Z,20.50
2018-07-20T09:00:04.544Z,20.50
2018-07-20T09:02:32.509Z,20.40
2018-07-20T09:05:00.565Z,20.30
2018-07-20T09:07:28.658Z,20.50
2018-07-20T09:09:56.705Z,20.80
2018-07-20T09:12:24.765Z,21.00
2018-07-20T09:14:52.824Z,20.90
2018-07-20T09:17:20.900Z,21.00
2018-07-20T09:19:48.969Z,21.10
2018-07-20T09:22:17.030Z,20.90
2018-07-20T09:24:45.828Z,20.80
2018-07-20T09:27:13.891Z,21.00
2018-07-20T09:29:41.947Z,21.20
2018-07-20T09:32:10.006Z,21.30
2018-07-20T09:34:38.189Z,21.50
2018-07-20T09:37:06.225Z,21.50
2018-07-20T09:39:34.428Z,21.20
2018-07-20T09:42:02.469Z,21.40
2018-07-20T09:44:30.640Z,21.70
2018-07-20T09:46:58.577Z,21.70
2018-07-20T09:49:26.623Z,21.90
2018-07-20T09:51:54.677Z,22.10
2018-07-20T09:54:22.778Z,22.20
2018-07-20T09:56:50.825Z,22.20
2018-07-20T09:59:18.869Z,22.30
2018-07-20T10:01:46.918Z,22.30
2018-07-20T10:04:14.987Z,22.30
2018-07-20T10:06:43.045Z,22.20
2018-07-20T10:09:12.498Z,22.30
2018-07-20T10:11:40.546Z,22.40
2018-07-20T10:14:08.590Z,22.60
2018-07-20T10:16:36.767Z,22.70
2018-07-20T10:19:05.224Z,22.80
2018-07-20T10:21:33.289Z,22.90
2018-07-20T10:24:01.347Z,23.00
2018-07-20T10:26:29.413Z,23.00
2018-07-20T10:28:57.649Z,23.00
2018-07-20T10:31:25.685Z,23.20
2018-07-20T10:33:53.746Z,23.20
2018-07-20T10:36:22.441Z,23.20
2018-07-20T10:38:51.219Z,23.30
2018-07-20T10:41:25.917Z,23.50
2018-07-20T10:43:53.998Z,23.40
2018-07-20T10:46:22.067Z,23.00
2018-07-20T10:48:50.120Z,23.20
2018-07-20T10:51:18.186Z,23.40
2018-07-20T10:53:46.259Z,23.60
2018-07-20T10:56:14.381Z,23.30
2018-07-20T10:58:42.441Z,23.00
2018-07-20T11:01:10.616Z,23.10
2018-07-20T11:03:38.665Z,23.20
2018-07-20T11:06:06.709Z,23.40
2018-07-20T11:08:34.765Z,23.40
2018-07-20T11:11:02.817Z,23.30
2018-07-20T11:13:30.867Z,23.50
2018-07-20T11:15:58.921Z,23.70
2018-07-20T11:18:26.966Z,23.70
2018-07-20T11:20:55.031Z,23.80
2018-07-20T11:23:23.125Z,23.70
2018-07-20T11:25:51.180Z,23.60
2018-07-20T11:28:19.230Z,23.50
2018-07-20T11:30:47.293Z,23.50
2018-07-20T11:33:15.358Z,23.50
2018-07-20T11:35:43.596Z,23.70
2018-07-20T11:38:11.642Z,23.80
2018-07-20T11:40:39.694Z,24.00
2018-07-20T11:43:07.950Z,23.70
2018-07-20T11:45:36.014Z,23.80
2018-07-20T11:48:04.067Z,23.70
2018-07-20T11:50:32.186Z,23.70
2018-07-20T11:53:00.286Z,23.80
2018-07-20T11:55:28.345Z,23.80
2018-07-20T11:57:56.405Z,23.70
2018-07-20T12:00:24.452Z,23.80
2018-07-20T12:02:52.501Z,24.00
2018-07-20T12:05:20.556Z,24.20
2018-07-20T12:07:48.601Z,24.20
2018-07-20T12:12:44.633Z,24.00
2018-07-20T12:15:12.690Z,24.10
2018-07-20T12:17:40.745Z,24.10
2018-07-20T12:20:08.809Z,24.10
2018-07-20T12:22:36.859Z,24.10
2018-07-20T12:25:04.967Z,24.30
2018-07-20T12:27:33.005Z,24.50
2018-07-20T12:30:01.066Z,24.70
2018-07-20T12:32:29.147Z,24.70
2018-07-20T12:34:57.188Z,24.70
2018-07-20T12:37:25.254Z,24.60
2018-07-20T12:39:53.293Z,24.70
2018-07-20T12:42:21.358Z,24.90
2018-07-20T12:44:49.415Z,24.90
2018-07-20T12:47:18.008Z,24.80
2018-07-20T12:49:46.570Z,24.80
2018-07-20T12:52:14.609Z,24.70
2018-07-20T12:54:43.308Z,24.70
2018-07-20T12:57:11.374Z,24.80
2018-07-20T12:59:39.421Z,24.90
2018-07-20T13:02:07.464Z,25.00
2018-07-20T13:04:35.509Z,25.10
2018-07-20T13:07:03.570Z,25.10
2018-07-20T13:09:31.619Z,25.20
2018-07-20T13:11:59.739Z,25.30
2018-07-20T13:16:55.578Z,25.30
2018-07-20T13:19:24.393Z,25.30
2018-07-20T13:21:52.453Z,25.30
2018-07-20T13:24:20.506Z,25.40
2018-07-20T13:26:48.574Z,25.50
2018-07-20T13:29:16.622Z,25.50
2018-07-20T13:31:44.677Z,25.50
2018-07-20T13:34:12.737Z,25.70
2018-07-20T13:36:40.796Z,25.70
2018-07-20T13:39:10.026Z,25.60
2018-07-20T13:41:38.538Z,25.60
2018-07-20T13:44:06.589Z,25.70
2018-07-20T13:46:34.844Z,25.90
2018-07-20T13:49:02.889Z,26.00
2018-07-20T13:51:30.929Z,25.80
2018-07-20T13:53:58.975Z,25.70
2018-07-20T13:56:27.029Z,25.80
2018-07-20T13:58:55.087Z,26.00
2018-07-20T14:01:23.166Z,26.30
2018-07-20T14:03:51.228Z,26.30
2018-07-20T14:06:19.297Z,26.00
2018-07-20T14:08:47.389Z,26.10
2018-07-20T14:11:15.440Z,26.40
2018-07-20T14:13:43.534Z,26.40
2018-07-20T14:16:11.699Z,26.00
2018-07-20T14:18:39.741Z,26.20
2018-07-20T14:23:35.881Z,26.40
2018-07-20T14:26:03.908Z,26.70
2018-07-20T14:28:32.002Z,26.10
2018-07-20T14:31:00.074Z,26.30
2018-07-20T14:33:28.137Z,26.60
2018-07-20T14:35:56.197Z,26.50
2018-07-20T14:38:24.252Z,26.90
2018-07-20T14:40:52.317Z,27.30
2018-07-20T14:43:20.393Z,27.60
2018-07-20T14:45:48.456Z,27.60
2018-07-20T14:48:16.510Z,27.20
2018-07-20T14:50:44.581Z,27.10
2018-07-20T14:53:12.695Z,27.20
2018-07-20T14:55:40.765Z,27.20
2018-07-20T14:58:08.805Z,27.30
2018-07-20T15:00:36.841Z,27.40
2018-07-20T15:03:04.914Z,27.70
2018-07-20T15:05:32.949Z,27.90
2018-07-20T15:08:01.002Z,28.00
2018-07-20T15:10:29.163Z,27.80
2018-07-20T15:12:57.235Z,27.90
2018-07-20T15:15:25.326Z,28.10
2018-07-20T15:17:53.428Z,28.00
2018-07-20T15:20:21.687Z,27.50
2018-07-20T15:22:49.726Z,27.40
2018-07-20T15:25:17.780Z,27.60
2018-07-20T15:27:45.834Z,27.80
2018-07-20T15:30:13.890Z,28.10
2018-07-20T15:32:41.966Z,28.10
2018-07-20T15:35:10.046Z,28.00
2018-07-20T15:37:38.101Z,28.20
2018-07-20T15:40:06.154Z,28.20
2018-07-20T15:42:34.209Z,28.40
2018-07-20T15:45:02.283Z,28.10
2018-07-20T15:47:30.480Z,27.50
2018-07-20T15:49:58.401Z,27.00
2018-07-20T15:54:54.605Z,27.70
2018-07-20T15:57:22.670Z,28.00
2018-07-20T15:59:50.815Z,27.80
2018-07-20T16:02:18.766Z,28.10
2018-07-20T16:04:46.817Z,27.10
2018-07-20T16:07:15.070Z,26.60
2018-07-20T16:09:43.113Z,26.80
2018-07-20T16:12:11.198Z,27.90
2018-07-20T16:14:39.256Z,28.00
2018-07-20T16:17:07.350Z,28.40
2018-07-20T16:19:35.362Z,28.70
2018-07-20T16:22:03.426Z,28.40
2018-07-20T16:24:31.481Z,28.90
2018-07-20T16:26:59.541Z,29.20
2018-07-20T16:29:27.625Z,29.10
2018-07-20T16:31:55.662Z,29.50
2018-07-20T16:34:23.710Z,30.20
2018-07-20T16:36:51.801Z,29.90
2018-07-20T16:39:19.863Z,29.70
2018-07-20T16:41:47.910Z,29.30
2018-07-20T16:44:15.953Z,29.40
2018-07-20T16:46:43.995Z,28.90
2018-07-20T16:49:12.054Z,28.30
2018-07-20T16:51:40.101Z,27.80
2018-07-20T16:54:08.540Z,27.60
2018-07-20T16:56:36.589Z,27.50
2018-07-20T17:01:32.561Z,27.00
2018-07-20T17:04:00.617Z,27.00
2018-07-20T17:06:28.696Z,27.10
2018-07-20T17:08:56.796Z,27.00
2018-07-20T17:11:24.833Z,27.00
2018-07-20T17:13:52.890Z,27.00
2018-07-20T17:16:20.950Z,26.80
2018-07-20T17:18:49.010Z,26.50
2018-07-20T17:21:17.062Z,26.40
2018-07-20T17:23:45.106Z,26.50
2018-07-20T17:26:13.174Z,26.50
2018-07-20T17:28:41.260Z,26.60
2018-07-20T17:31:09.317Z,26.80
2018-07-20T17:33:37.442Z,27.30
2018-07-20T17:36:05.649Z,28.00
2018-07-20T17:38:33.702Z,28.40
2018-07-20T17:41:01.775Z,28.40
2018-07-20T17:43:29.864Z,28.10
2018-07-20T17:45:57.902Z,27.80
2018-07-20T17:48:25.978Z,27.50
2018-07-20T17:50:54.031Z,27.30
2018-07-20T17:53:22.124Z,27.00
2018-07-20T17:55:50.181Z,26.70
2018-07-20T17:58:19.161Z,26.50
2018-07-20T18:00:47.253Z,26.40
2018-07-20T18:03:15.326Z,26.20
2018-07-20T18:05:43.393Z,26.10
2018-07-20T18:08:11.437Z,25.90
2018-07-20T18:10:39.539Z,25.90
2018-07-20T18:13:07.577Z,25.70
2018-07-20T18:15:35.650Z,25.60
2018-07-20T18:18:03.817Z,25.40
2018-07-20T18:20:31.893Z,25.40
2018-07-20T18:22:59.948Z,25.50
2018-07-20T18:25:27.997Z,25.50
2018-07-20T18:27:56.288Z,25.30
2018-07-20T18:30:24.334Z,25.20
2018-07-20T18:32:52.380Z,25.10
2018-07-20T18:35:20.438Z,25.10
2018-07-20T18:37:48.497Z,25.10
2018-07-20T18:40:16.554Z,25.00
2018-07-20T18:42:44.604Z,25.00
2018-07-20T18:45:12.673Z,24.90
2018-07-20T18:47:40.750Z,24.90
2018-07-20T18:50:09.540Z,24.80
2018-07-20T18:52:38.474Z,24.70
2018-07-20T18:55:07.166Z,24.70
2018-07-20T18:57:35.233Z,24.70
2018-07-20T19:00:03.592Z,24.50
2018-07-20T19:02:31.704Z,24.40
2018-07-20T19:04:59.775Z,24.40
2018-07-20T19:07:27.875Z,24.20
2018-07-20T19:09:56.390Z,24.10
2018-07-20T19:12:24.433Z,24.00
2018-07-20T19:14:52.558Z,24.00
2018-07-20T19:17:21.010Z,23.60
2018-07-20T19:19:49.073Z,23.60
2018-07-20T19:22:17.125Z,23.50
2018-07-20T19:24:45.302Z,23.50
2018-07-20T19:27:13.350Z,23.50
2018-07-20T19:29:41.612Z,23.50
2018-07-20T19:32:09.936Z,23.30
2018-07-20T19:34:38.238Z,23.30
2018-07-20T19:37:06.290Z,23.20
2018-07-20T19:39:34.356Z,23.20
2018-07-20T19:42:02.451Z,23.30
2018-07-20T19:44:30.457Z,23.20
2018-07-20T19:46:58.551Z,23.10
2018-07-20T19:49:26.611Z,23.00
2018-07-20T19:51:54.858Z,22.90
2018-07-20T19:54:22.971Z,22.80
2018-07-20T19:56:51.044Z,22.80
2018-07-20T19:59:19.485Z,22.80
2018-07-20T20:01:47.746Z,22.80
2018-07-20T20:06:43.651Z,22.90
2018-07-20T20:09:12.029Z,22.80
2018-07-20T20:11:40.103Z,22.80
2018-07-20T20:14:08.170Z,22.70
2018-07-20T20:16:36.677Z,22.70
2018-07-20T20:19:04.781Z,22.60
2018-07-20T20:21:32.834Z,22.50
2018-07-20T20:24:00.893Z,22.60
2018-07-20T20:26:28.953Z,22.50
2018-07-20T20:28:57.006Z,22.50
2018-07-20T20:31:25.105Z,22.50
2018-07-20T20:33:53.199Z,22.40
2018-07-20T20:36:21.293Z,22.40
2018-07-20T20:38:49.354Z,22.40
2018-07-20T20:41:17.418Z,22.40
2018-07-20T20:43:45.510Z,22.30
2018-07-20T20:46:13.547Z,22.30
2018-07-20T20:48:41.684Z,22.20
2018-07-20T20:51:09.729Z,22.30
2018-07-20T20:53:37.833Z,22.20
2018-07-20T20:56:06.076Z,22.20
2018-07-20T20:58:34.149Z,22.10
2018-07-20T21:01:02.242Z,22.10
2018-07-20T21:03:30.313Z,22.00
2018-07-20T21:05:58.369Z,22.00
2018-07-20T21:08:26.425Z,22.00
2018-07-20T21:10:54.506Z,21.80
2018-07-20T21:13:22.561Z,21.80
2018-07-20T21:15:50.640Z,21.80
2018-07-20T21:18:18.786Z,21.90
2018-07-20T21:20:46.853Z,21.80
2018-07-20T21:23:14.906Z,21.80
2018-07-20T21:25:43.018Z,21.70
2018-07-20T21:28:11.613Z,21.70
2018-07-20T21:30:39.684Z,21.60
2018-07-20T21:33:07.757Z,21.60
2018-07-20T21:35:35.827Z,21.60
2018-07-20T21:38:04.014Z,21.60
2018-07-20T21:40:32.069Z,21.60
2018-07-20T21:43:00.143Z,21.60
2018-07-20T21:45:28.259Z,21.50
2018-07-20T21:47:56.305Z,21.50
2018-07-20T21:50:24.378Z,21.40
2018-07-20T21:52:52.433Z,21.40
2018-07-20T21:55:20.488Z,21.50
2018-07-20T22:00:19.109Z,21.20
2018-07-20T22:02:48.186Z,21.20
2018-07-20T22:05:16.363Z,21.20
2018-07-20T22:07:45.074Z,21.10
2018-07-20T22:10:13.133Z,21.10
2018-07-20T22:12:41.180Z,21.00
2018-07-20T22:15:09.766Z,21.10
2018-07-20T22:20:06.730Z,21.00
2018-07-20T22:22:35.113Z,21.00
2018-07-20T22:25:03.321Z,21.00
2018-07-20T22:27:31.389Z,20.90
2018-07-20T22:29:59.490Z,20.90
2018-07-20T22:32:27.509Z,20.90
2018-07-20T22:34:55.583Z,21.00
2018-07-20T22:37:23.642Z,20.90
2018-07-20T22:39:51.698Z,20.90
2018-07-20T22:42:19.766Z,20.80
2018-07-20T22:44:47.985Z,20.80
2018-07-20T22:47:16.053Z,20.80
2018-07-20T22:49:44.260Z,20.80
2018-07-20T22:52:12.317Z,20.70
2018-07-20T22:54:40.386Z,20.70
2018-07-20T22:57:08.444Z,20.60
2018-07-20T22:59:36.530Z,20.50
2018-07-20T23:02:04.615Z,20.50
2018-07-20T23:04:32.657Z,20.50
2018-07-20T23:07:00.729Z,20.40
2018-07-20T23:11:56.748Z,20.30
2018-07-20T23:14:24.777Z,20.30
2018-07-20T23:16:52.826Z,20.40
2018-07-20T23:19:21.073Z,20.30
2018-07-20T23:24:17.254Z,20.30
2018-07-20T23:26:45.315Z,20.20
2018-07-20T23:29:14.280Z,20.10
2018-07-20T23:31:42.297Z,20.10
2018-07-20T23:34:10.378Z,20.10
2018-07-20T23:36:38.705Z,20.10
2018-07-20T23:39:08.322Z,20.10
2018-07-20T23:41:36.388Z,20.00
2018-07-20T23:46:32.283Z,19.80
2018-07-20T23:49:00.579Z,19.90
2018-07-20T23:51:28.634Z,19.80
2018-07-20T23:53:56.681Z,19.80
2018-07-20T23:56:24.969Z,19.70
2018-07-20T23:58:53.083Z,19.70
